Portada
METAR-TAF:

METAR-TAF

Aeroports :

Orlhac, França

latitud: 44-53N, longitud: 002-25E, altitud: 639 m

Observació

L'informe es va fer fa 20 minuts, a les 22:00 UTC
Vent 1 kt del Est
Temperatura 7°C
Humitat 100%
Pressió 1021 hPa
Visibilitat: 2600 m
Escasses núvols a una alçada de 4300 ft
Núvols disperses a una alçada de 24000 ft

METAR: LFLW 212200Z AUTO 10001KT 8000 2600 FEW043 SCT240 07/07 Q1021

Hora: 00:20 (22:20 UTC)

Pronòstic

L'informe es va fer fa 8 hores i 20 minuts, a les 14:00 UTC
Pronòstic vàlid del 21 a les 15 UTC al 21 a les 24 UTC
Vent 2 kt amb direcció variable
Visibilitat 10 km o més
Núvols disperses a una alçada de 2600 ft
Temporalment
l' 21 a les 15 UTC al 21 a les 21 UTC
Visibilitat 10 km o més
sense núvols per sota de 1500 mi sense presència de cumulonimbus.
Evolucionant progressivament
l' 21 a les 21 UTC al 21 a les 23 UTC
Cel ennuvolat a una alçada de 800 ft

TAF: LFLW 211400Z 2115/2124 VRB02KT 9999 SCT026 TEMPO 2115/2121 CAVOK BECMG 2121/2123 BKN008

Observacions i pronòstics meteorològics de més de 4000 aeroports (METAR i TAF).

Les estacions disponibles són els punts grocs i vermells al mapa.

Posi el ratolí al punt desitjat per veure el nom de l'estació.

Feu clic per veure les observacions i els pronòstics meteorològics.

Per canviar el mapa: feu clic els botons verds amb una creu de color negre per apropar; al botó verd amb un guió per allunyar la imatge; o en les fletxes verdes per a mapes adjacents.


METAR-TAF: